• Join FlightAware (Why Join?)
  • Login
  • US Flag 
05:44AM EDT


 

Airport Tracker/Info


-or-


 

Live Flight TrackerFlight Track Log ✈ EJA727 ✈ 03-Jul-2013 ✈ KMIA - MDSD / SDQ

Flight Track Log - Related Links

Times and Time Zones

All times are in EDT time to prevent confusion due to time zone crossing. See the EJA727 flight status page for this flight to view local times or setup timezone preferences in your user account.

Time Position Orientation Groundspeed Altitude Reporting Facility
EDT Latitude Longitude Course Direction KTS MPH feet Rate Location/Type
07:07PM 25.8025 -80.2722 77° East 134 154 900  Level Miami Center
07:09PM 25.8211 -80.1806 77° East 243 280 5,700 2,460 Climbing Miami Center
07:10PM 25.8272 -80.0953 85° East 256 295 7,000 2,160 Climbing Miami Center
07:11PM 25.8289 -80.0192 89° East 256 295 10,100 3,060 Climbing Miami Center
07:12PM 25.8033 -79.9400 110° East 251 289 13,200 2,760 Climbing Miami Center
07:13PM 25.7700 -79.8469 112° Southeast 287 330 15,700 2,400 Climbing Miami Center
07:14PM 25.7303 -79.7444 113° Southeast 328 377 18,100 2,400 Climbing Miami Center
07:15PM 25.6925 -79.6375 111° Southeast 359 413 20,500 2,340 Climbing Miami Center
07:16PM 25.6464 -79.5281 115° Southeast 374 430 22,800 1,200 Climbing Miami Center
07:17PM 25.6047 -79.4050 111° Southeast 398 458 23,000 60 Climbing Miami Center
07:18PM 25.5547 -79.2728 113° Southeast 434 499 23,000 600 Level Miami Center
07:19PM 25.5236 -79.1339 104° East 453 521 24,200 1,920 Climbing Miami Center
07:20PM 25.4942 -79.0000 104° East 458 527 26,900 2,340 Climbing Miami Center
07:21PM 25.4625 -78.8706 105° East 448 516 28,900 1,740 Climbing Miami Center
07:22PM 25.4267 -78.7411 107° East 436 502 30,400 1,260 Climbing Miami Center
07:24PM 25.3633 -78.4525 104° East 470 541 32,700 1,380 Climbing Miami Center
07:25PM 25.3311 -78.3164 105° East 475 547 34,600 1,860 Climbing Miami Center
07:26PM 25.2969 -78.1781 105° East 470 541 36,500 1,740 Climbing Miami Center
07:27PM 25.2481 -78.0467 112° Southeast 470 541 38,100 1,200 Climbing Miami Center
07:28PM 25.1989 -77.9153 112° Southeast 464 534 39,000 420 Climbing Miami Center
07:29PM 25.1494 -77.7794 112° Southeast 464 534 39,000  Level Miami Center
07:30PM 25.0961 -77.6414 113° Southeast 474 545 39,000  Level Miami Center
07:31PM 25.0297 -77.4964 117° Southeast 494 568 39,000  Level Miami Center
07:32PM 24.9467 -77.3608 124° Southeast 516 594 39,000  Level Miami Center
07:33PM 24.8636 -77.2300 125° Southeast 524 603 39,000  Level Miami Center
07:34PM 24.7803 -77.1014 125° Southeast 517 595 39,000  Level Miami Center
07:35PM 24.6967 -76.9756 126° Southeast 517 595 39,000  Level Miami Center
07:36PM 24.6131 -76.8450 125° Southeast 517 595 39,000  Level Miami Center
07:37PM 24.5294 -76.7194 126° Southeast 522 601 39,000  Level Miami Center
07:38PM 24.4436 -76.5894 126° Southeast 522 601 39,000  Level Miami Center
07:39PM 24.3556 -76.4528 125° Southeast 522 601 39,000  Level Miami Center
07:40PM 24.2694 -76.3253 127° Southeast 522 601 39,000  Level Miami Center
07:41PM 24.1831 -76.1983 127° Southeast 522 601 39,000  Level Miami Center
07:42PM 24.1011 -76.0689 125° Southeast 522 601 39,000  Level Miami Center
07:43PM 24.0147 -75.9397 126° Southeast 522 601 39,000  Level Miami Center
07:44PM 23.9322 -75.8108 125° Southeast 522 601 39,000  Level Miami Center
07:45PM 23.8456 -75.6819 126° Southeast 522 601 39,000  Level Miami Center
07:46PM 23.7589 -75.5533 126° Southeast 522 601 39,000  Level Miami Center
07:47PM 23.6742 -75.4250 126° Southeast 522 601 39,000  Level Miami Center
07:48PM 23.5956 -75.3125 127° Southeast 522 601 39,000  Level Miami Center
07:49PM 23.5128 -75.1867 126° Southeast 522 601 39,000  Level Miami Center
07:50PM 23.4256 -75.0633 128° Southeast 522 601 39,000  Level Miami Center
07:51PM 23.3406 -74.9356 126° Southeast 522 601 39,000  Level Miami Center
07:52PM 23.2575 -74.8125 126° Southeast 522 601 39,000  Level Miami Center
07:53PM 23.1722 -74.6894 127° Southeast 522 601 39,000  Level Miami Center
07:54PM 23.0867 -74.5667 127° Southeast 522 601 39,000  Level Miami Center
07:55PM 23.0033 -74.4464 127° Southeast 512 589 39,000  Level Miami Center
07:56PM 22.9242 -74.3261 126° Southeast 500 575 39,000  Level Miami Center
07:57PM 22.8406 -74.2061 127° Southeast 500 575 39,000  Level Miami Center
07:58PM 22.7569 -74.0839 127° Southeast 500 575 39,000  Level Miami Center
07:59PM 22.6753 -73.9664 127° Southeast 495 570 39,000  Level Miami Center
08:00PM 22.5936 -73.8467 126° Southeast 495 570 39,000  Level Miami Center
08:01PM 22.5097 -73.7272 127° Southeast 495 570 39,000  Level Miami Center
08:02PM 22.4278 -73.6103 127° Southeast 500 575 39,000  Level Miami Center
08:03PM 22.3439 -73.4911 127° Southeast 500 575 39,000  Level Miami Center
08:04PM 22.2639 -73.3764 127° Southeast 495 570 39,000  Level Miami Center
08:05PM 22.1797 -73.2553 127° Southeast 495 570 39,000  Level Miami Center
08:06PM 22.0975 -73.1389 127° Southeast 495 570 39,000  Level Miami Center
08:07PM 22.0133 -73.0225 128° Southeast 495 570 39,000  Level Miami Center
08:08PM 21.9289 -72.9064 128° Southeast 495 570 39,000  Level Miami Center
08:09PM 21.8486 -72.7881 126° Southeast 501 577 39,000  Level Miami Center
08:10PM 21.7661 -72.6722 127° Southeast 495 570 39,000  Level Miami Center
08:11PM 21.6836 -72.5564 127° Southeast 495 570 39,000  Level Miami Center
08:12PM 21.6008 -72.4386 127° Southeast 495 570 39,000  Level Miami Center
08:13PM 21.5181 -72.3208 127° Southeast 495 570 39,000  Level Miami Center
08:14PM 21.4333 -72.2058 128° Southeast 500 575 39,000  Level Miami Center
08:15PM 21.3461 -72.0861 128° Southeast 500 575 39,000  Level Miami Center
08:16PM 21.2631 -71.9667 127° Southeast 500 575 39,000  Level Miami Center
08:17PM 21.1781 -71.8497 128° Southeast 500 575 39,000  Level Miami Center
08:18PM 21.0950 -71.7328 127° Southeast 500 575 39,000  Level Miami Center
08:19PM 21.0008 -71.6008 127° Southeast 500 575 39,000  Level Miami Center
08:20PM 20.9156 -71.4844 128° Southeast 500 575 39,000  Level Miami Center
08:21PM 20.8300 -71.3681 128° Southeast 500 575 39,000  Level Miami Center
08:22PM 20.7444 -71.2472 127° Southeast 500 575 39,000  Level Miami Center
08:23PM 20.6589 -71.1311 128° Southeast 500 575 39,000  Level Miami Center
08:24PM 20.5689 -71.0089 128° Southeast 500 575 39,000  Level Miami Center
08:25PM 20.4828 -70.8864 127° Southeast 505 581 39,000  Level Miami Center
08:26PM 20.3889 -70.7778 133° Southeast 510 587 39,000  Level Miami Center
08:27PM 20.2733 -70.6944 146° Southeast 498 573 39,000  Level Miami Center
08:29PM 20.0655 -70.6663 163° South  Level FlightAware Approximate
08:36PM 19.4228 -70.1384 129° Southeast  Level FlightAware Approximate
08:37PM 19.3456 -70.0393 130° Southeast  Level FlightAware Approximate
08:38PM 19.2684 -69.9403 130° Southeast  Level FlightAware Approximate
08:39PM 19.1616 -69.8885 164° South  Level FlightAware Approximate
08:40PM 19.0450 -69.8535 164° South  Level FlightAware Approximate
08:41PM 18.9293 -69.8153 162° South  Level FlightAware Approximate
08:42PM 18.8134 -69.7774 164° South  Level FlightAware Approximate
08:43PM 18.6968 -69.7424 164° South  Level FlightAware Approximate
08:44PM 18.5833 -69.7113 90° East  Level FlightAware Approximate
08:45PM 18.4760 -69.6737 159° South  Level FlightAware Approximate
08:46PM 18.4297 -69.6689 159° South  Level Estimated
08:47PM 18.4297 -69.6689 159° South  Level Estimated
08:48PM 18.4297 -69.6689 159° South  Level Estimated
08:49PM 18.4297 -69.6689 159° South  Level Estimated
08:50PM 18.4297 -69.6689 159° South  Level Estimated
08:51PM 18.4297 -69.6689 159° South  Level Estimated
08:52PM 18.4297 -69.6689 159° South  Level Estimated
08:53PM 18.4297 -69.6689 159° South  Level Estimated
08:54PM 18.4297 -69.6689 159° South  Level Estimated
08:55PM 18.4297 -69.6689 159° South  Level Estimated
08:56PM 18.4297 -69.6689 159° South  Level Estimated
08:57PM 18.4297 -69.6689 159° South  Level Estimated
08:58PM 18.4297 -69.6689 159° South  Level Estimated
08:59PM 18.4297 -69.6689 159° South  Level Estimated
09:00PM 18.4297 -69.6689 159° South  Level Estimated
09:01PM 18.4297 -69.6689 159° South  Level Estimated
09:02PM 18.4297 -69.6689 159° South  Level Estimated
09:03PM 18.4297 -69.6689 159° South  Level Estimated
09:04PM 18.4297 -69.6689 159° South  Level Estimated
09:05PM 18.4297 -69.6689 159° South  Level Estimated
09:06PM 18.4297 -69.6689 159° South  Level Estimated
09:07PM 18.4297 -69.6689 159° South  Level Estimated
09:08PM 18.4297 -69.6689 159° South  Level Estimated